sensor_id;sensor_type;location;lat;lon;timestamp;pressure;altitude;pressure_sealevel;temperature;humidity
4410;BME280;2218;51.408;7.208;2023-11-21T00:02:26;99177.31;;;18.82;48.86
4410;BME280;2218;51.408;7.208;2023-11-21T00:04:55;99187.84;;;18.82;49.02
4410;BME280;2218;51.408;7.208;2023-11-21T00:07:22;99181.88;;;18.80;49.04
4410;BME280;2218;51.408;7.208;2023-11-21T00:09:49;99187.13;;;18.80;48.80
4410;BME280;2218;51.408;7.208;2023-11-21T00:12:16;99195.97;;;18.79;49.03
4410;BME280;2218;51.408;7.208;2023-11-21T00:14:43;99189.88;;;18.79;48.94
4410;BME280;2218;51.408;7.208;2023-11-21T00:17:10;99188.19;;;18.78;49.03
4410;BME280;2218;51.408;7.208;2023-11-21T00:19:37;99181.13;;;18.78;49.04
4410;BME280;2218;51.408;7.208;2023-11-21T00:22:05;99182.09;;;18.77;49.03
4410;BME280;2218;51.408;7.208;2023-11-21T00:24:32;99190.94;;;18.76;48.90
4410;BME280;2218;51.408;7.208;2023-11-21T00:26:59;99195.38;;;18.76;49.10
4410;BME280;2218;51.408;7.208;2023-11-21T00:29:26;99189.38;;;18.74;48.99
4410;BME280;2218;51.408;7.208;2023-11-21T00:31:53;99191.06;;;18.75;48.68
4410;BME280;2218;51.408;7.208;2023-11-21T00:34:20;99190.22;;;18.74;48.97
4410;BME280;2218;51.408;7.208;2023-11-21T00:36:47;99196.44;;;18.73;48.75
4410;BME280;2218;51.408;7.208;2023-11-21T00:39:15;99194.75;;;18.72;48.86
4410;BME280;2218;51.408;7.208;2023-11-21T00:41:42;99206.25;;;18.71;48.99
4410;BME280;2218;51.408;7.208;2023-11-21T00:44:10;99195.84;;;18.70;48.75
4410;BME280;2218;51.408;7.208;2023-11-21T00:46:37;99195.84;;;18.70;48.97
4410;BME280;2218;51.408;7.208;2023-11-21T00:49:03;99194.16;;;18.69;48.73
4410;BME280;2218;51.408;7.208;2023-11-21T00:51:31;99198.56;;;18.68;48.67
4410;BME280;2218;51.408;7.208;2023-11-21T00:53:59;99200.34;;;18.68;48.85
4410;BME280;2218;51.408;7.208;2023-11-21T00:56:27;99203.84;;;18.68;48.69
4410;BME280;2218;51.408;7.208;2023-11-21T00:58:54;99202.13;;;18.67;48.78
4410;BME280;2218;51.408;7.208;2023-11-21T01:01:22;99199.50;;;18.67;48.77
4410;BME280;2218;51.408;7.208;2023-11-21T01:03:50;99208.34;;;18.66;49.11
4410;BME280;2218;51.408;7.208;2023-11-21T01:06:17;99204.06;;;18.65;48.83
4410;BME280;2218;51.408;7.208;2023-11-21T01:08:45;99204.06;;;18.65;48.87
4410;BME280;2218;51.408;7.208;2023-11-21T01:11:12;99209.31;;;18.65;48.99
4410;BME280;2218;51.408;7.208;2023-11-21T01:13:42;99208.44;;;18.65;48.89
4410;BME280;2218;51.408;7.208;2023-11-21T01:16:10;99202.47;;;18.63;48.99
4410;BME280;2218;51.408;7.208;2023-11-21T01:18:37;99216.47;;;18.63;48.91
4410;BME280;2218;51.408;7.208;2023-11-21T01:21:06;99213.13;;;18.61;48.95
4410;BME280;2218;51.408;7.208;2023-11-21T01:23:33;99217.44;;;18.62;49.01
4410;BME280;2218;51.408;7.208;2023-11-21T01:26:00;99218.38;;;18.61;49.10
4410;BME280;2218;51.408;7.208;2023-11-21T01:28:27;99225.44;;;18.60;48.77
4410;BME280;2218;51.408;7.208;2023-11-21T01:30:55;99221.97;;;18.60;49.07
4410;BME280;2218;51.408;7.208;2023-11-21T01:33:23;99214.19;;;18.58;48.69
4410;BME280;2218;51.408;7.208;2023-11-21T01:35:52;99220.28;;;18.59;48.99
4410;BME280;2218;51.408;7.208;2023-11-21T01:38:20;99217.66;;;18.59;48.85
4410;BME280;2218;51.408;7.208;2023-11-21T01:40:48;99231.75;;;18.58;48.76
4410;BME280;2218;51.408;7.208;2023-11-21T01:43:14;99223.88;;;18.58;49.08
4410;BME280;2218;51.408;7.208;2023-11-21T01:45:42;99224.00;;;18.56;48.88
4410;BME280;2218;51.408;7.208;2023-11-21T01:48:13;99227.47;;;18.57;48.98
4410;BME280;2218;51.408;7.208;2023-11-21T01:50:42;99224.94;;;18.55;49.03
4410;BME280;2218;51.408;7.208;2023-11-21T01:53:12;99224.13;;;18.55;48.88
4410;BME280;2218;51.408;7.208;2023-11-21T01:55:40;99232.94;;;18.54;49.14
4410;BME280;2218;51.408;7.208;2023-11-21T01:58:10;99224.22;;;18.53;48.83
4410;BME280;2218;51.408;7.208;2023-11-21T02:00:38;99232.94;;;18.54;48.79
4410;BME280;2218;51.408;7.208;2023-11-21T02:03:05;99227.78;;;18.52;49.07
4410;BME280;2218;51.408;7.208;2023-11-21T02:05:34;99231.25;;;18.53;48.90
4410;BME280;2218;51.408;7.208;2023-11-21T02:08:02;99229.59;;;18.52;48.74
4410;BME280;2218;51.408;7.208;2023-11-21T02:10:30;99234.03;;;18.51;48.92
4410;BME280;2218;51.408;7.208;2023-11-21T02:12:58;99241.06;;;18.51;49.07
4410;BME280;2218;51.408;7.208;2023-11-21T02:15:28;99245.50;;;18.50;48.94
4410;BME280;2218;51.408;7.208;2023-11-21T02:17:55;99247.28;;;18.50;48.86
4410;BME280;2218;51.408;7.208;2023-11-21T02:20:24;99255.19;;;18.50;49.11
4410;BME280;2218;51.408;7.208;2023-11-21T02:22:54;99259.50;;;18.51;48.84
4410;BME280;2218;51.408;7.208;2023-11-21T02:25:24;99259.72;;;18.48;49.17
4410;BME280;2218;51.408;7.208;2023-11-21T02:27:52;99254.44;;;18.48;49.12
4410;BME280;2218;51.408;7.208;2023-11-21T02:30:20;99255.28;;;18.48;49.09
4410;BME280;2218;51.408;7.208;2023-11-21T02:32:47;99258.03;;;18.47;48.92
4410;BME280;2218;51.408;7.208;2023-11-21T02:35:15;99258.88;;;18.47;49.18
4410;BME280;2218;51.408;7.208;2023-11-21T02:37:42;99257.19;;;18.46;48.96
4410;BME280;2218;51.408;7.208;2023-11-21T02:40:11;99264.13;;;18.47;49.25
4410;BME280;2218;51.408;7.208;2023-11-21T02:42:39;99261.63;;;18.46;48.83
4410;BME280;2218;51.408;7.208;2023-11-21T02:45:08;99261.63;;;18.46;49.18
4410;BME280;2218;51.408;7.208;2023-11-21T02:47:35;99259.91;;;18.45;49.23
4410;BME280;2218;51.408;7.208;2023-11-21T02:50:02;99268.78;;;18.44;48.92
4410;BME280;2218;51.408;7.208;2023-11-21T02:52:30;99268.78;;;18.44;49.12
4410;BME280;2218;51.408;7.208;2023-11-21T02:54:59;99269.72;;;18.43;48.97
4410;BME280;2218;51.408;7.208;2023-11-21T02:57:27;99270.69;;;18.42;48.96
4410;BME280;2218;51.408;7.208;2023-11-21T02:59:54;99275.94;;;18.42;48.92
4410;BME280;2218;51.408;7.208;2023-11-21T03:02:22;99268.06;;;18.42;49.06
4410;BME280;2218;51.408;7.208;2023-11-21T03:04:49;99274.28;;;18.41;49.04
4410;BME280;2218;51.408;7.208;2023-11-21T03:07:16;99275.19;;;18.40;48.78
4410;BME280;2218;51.408;7.208;2023-11-21T03:09:44;99275.09;;;18.41;49.19
4410;BME280;2218;51.408;7.208;2023-11-21T03:12:12;99285.50;;;18.43;49.21
4410;BME280;2218;51.408;7.208;2023-11-21T03:14:40;99281.94;;;18.44;48.89
4410;BME280;2218;51.408;7.208;2023-11-21T03:17:07;99290.56;;;18.46;48.73
4410;BME280;2218;51.408;7.208;2023-11-21T03:19:34;99287.69;;;18.49;49.07
4410;BME280;2218;51.408;7.208;2023-11-21T03:22:01;99286.66;;;18.51;48.70
4410;BME280;2218;51.408;7.208;2023-11-21T03:24:30;99290.00;;;18.53;48.80
4410;BME280;2218;51.408;7.208;2023-11-21T03:26:57;99292.53;;;18.55;48.41
4410;BME280;2218;51.408;7.208;2023-11-21T03:29:24;99290.75;;;18.55;48.58
4410;BME280;2218;51.408;7.208;2023-11-21T03:31:52;99296.72;;;18.57;48.64
4410;BME280;2218;51.408;7.208;2023-11-21T03:34:25;99298.38;;;18.58;48.43
4410;BME280;2218;51.408;7.208;2023-11-21T03:36:52;99299.22;;;18.59;48.45
4410;BME280;2218;51.408;7.208;2023-11-21T03:39:20;99297.44;;;18.59;48.74
4410;BME280;2218;51.408;7.208;2023-11-21T03:41:48;99298.31;;;18.60;48.68
4410;BME280;2218;51.408;7.208;2023-11-21T03:44:15;99305.25;;;18.61;48.70
4410;BME280;2218;51.408;7.208;2023-11-21T03:46:44;99307.03;;;18.60;48.62
4410;BME280;2218;51.408;7.208;2023-11-21T03:49:13;99314.81;;;18.62;48.36
4410;BME280;2218;51.408;7.208;2023-11-21T03:51:41;99320.06;;;18.62;48.51
4410;BME280;2218;51.408;7.208;2023-11-21T03:54:08;99320.06;;;18.62;48.68
4410;BME280;2218;51.408;7.208;2023-11-21T03:56:38;99325.34;;;18.62;48.44
4410;BME280;2218;51.408;7.208;2023-11-21T03:59:05;99332.28;;;18.63;48.63
4410;BME280;2218;51.408;7.208;2023-11-21T04:01:32;99331.44;;;18.63;48.44
4410;BME280;2218;51.408;7.208;2023-11-21T04:04:00;99325.34;;;18.62;48.64
4410;BME280;2218;51.408;7.208;2023-11-21T04:06:28;99336.56;;;18.64;48.60
4410;BME280;2218;51.408;7.208;2023-11-21T04:08:55;99342.81;;;18.63;48.46
4410;BME280;2218;51.408;7.208;2023-11-21T04:11:22;99338.38;;;18.64;48.56
4410;BME280;2218;51.408;7.208;2023-11-21T04:13:49;99341.00;;;18.64;48.59
4410;BME280;2218;51.408;7.208;2023-11-21T04:16:17;99344.47;;;18.64;48.63
4410;BME280;2218;51.408;7.208;2023-11-21T04:18:44;99346.19;;;18.65;48.45
4410;BME280;2218;51.408;7.208;2023-11-21T04:21:11;99339.22;;;18.64;48.50
4410;BME280;2218;51.408;7.208;2023-11-21T04:23:39;99343.63;;;18.64;48.66
4410;BME280;2218;51.408;7.208;2023-11-21T04:26:06;99344.47;;;18.64;48.45
4410;BME280;2218;51.408;7.208;2023-11-21T04:28:33;99342.69;;;18.65;48.55
4410;BME280;2218;51.408;7.208;2023-11-21T04:31:01;99351.44;;;18.65;48.72
4410;BME280;2218;51.408;7.208;2023-11-21T04:33:28;99355.84;;;18.65;48.41
4410;BME280;2218;51.408;7.208;2023-11-21T04:35:55;99352.28;;;18.66;48.39
4410;BME280;2218;51.408;7.208;2023-11-21T04:38:22;99348.69;;;18.67;48.34
4410;BME280;2218;51.408;7.208;2023-11-21T04:40:50;99353.13;;;18.66;48.48
4410;BME280;2218;51.408;7.208;2023-11-21T04:43:17;99351.31;;;18.67;48.37
4410;BME280;2218;51.408;7.208;2023-11-21T04:45:44;99350.47;;;18.66;48.53
4410;BME280;2218;51.408;7.208;2023-11-21T04:48:11;99353.97;;;18.67;48.69
4410;BME280;2218;51.408;7.208;2023-11-21T04:50:38;99353.13;;;18.66;48.40
4410;BME280;2218;51.408;7.208;2023-11-21T04:53:05;99358.38;;;18.66;48.46
4410;BME280;2218;51.408;7.208;2023-11-21T04:55:32;99357.41;;;18.67;48.57
4410;BME280;2218;51.408;7.208;2023-11-21T04:58:00;99350.47;;;18.66;48.70
4410;BME280;2218;51.408;7.208;2023-11-21T05:00:30;99353.97;;;18.67;48.63
4410;BME280;2218;51.408;7.208;2023-11-21T05:02:56;99362.69;;;18.67;48.48
4410;BME280;2218;51.408;7.208;2023-11-21T05:05:23;99367.03;;;18.68;48.39
4410;BME280;2218;51.408;7.208;2023-11-21T05:07:50;99371.41;;;18.68;48.44
4410;BME280;2218;51.408;7.208;2023-11-21T05:10:19;99375.84;;;18.67;48.33
4410;BME280;2218;51.408;7.208;2023-11-21T05:12:46;99380.19;;;18.68;48.36
4410;BME280;2218;51.408;7.208;2023-11-21T05:15:16;99379.22;;;18.69;48.28
4410;BME280;2218;51.408;7.208;2023-11-21T05:17:44;99381.78;;;18.71;48.37
4410;BME280;2218;51.408;7.208;2023-11-21T05:20:13;99377.34;;;18.71;48.15
4410;BME280;2218;51.408;7.208;2023-11-21T05:22:43;99380.69;;;18.73;47.99
4410;BME280;2218;51.408;7.208;2023-11-21T05:25:10;99389.34;;;18.75;48.07
4410;BME280;2218;51.408;7.208;2023-11-21T05:27:37;99391.00;;;18.76;48.25
4410;BME280;2218;51.408;7.208;2023-11-21T05:30:06;99404.06;;;18.78;48.30
4410;BME280;2218;51.408;7.208;2023-11-21T05:32:36;99402.19;;;18.80;48.17
4410;BME280;2218;51.408;7.208;2023-11-21T05:35:04;99407.44;;;18.80;48.07
4410;BME280;2218;51.408;7.208;2023-11-21T05:37:35;99413.41;;;18.82;48.02
4410;BME280;2218;51.408;7.208;2023-11-21T05:40:04;99419.53;;;18.82;47.93
4410;BME280;2218;51.408;7.208;2023-11-21T05:42:32;99410.66;;;18.83;48.01
4410;BME280;2218;51.408;7.208;2023-11-21T05:44:59;99412.34;;;18.84;47.92
4410;BME280;2218;51.408;7.208;2023-11-21T05:47:37;99421.94;;;18.85;47.87
4410;BME280;2218;51.408;7.208;2023-11-21T05:50:07;99423.63;;;18.87;47.64
4410;BME280;2218;51.408;7.208;2023-11-21T05:52:36;99427.81;;;18.89;47.77
4410;BME280;2218;51.408;7.208;2023-11-21T05:55:04;99433.94;;;18.90;47.75
4410;BME280;2218;51.408;7.208;2023-11-21T05:57:33;99439.22;;;18.90;47.68
4410;BME280;2218;51.408;7.208;2023-11-21T06:00:03;99435.63;;;18.91;47.81
4410;BME280;2218;51.408;7.208;2023-11-21T06:02:39;99452.25;;;18.91;47.68
4410;BME280;2218;51.408;7.208;2023-11-21T06:05:07;99445.19;;;18.92;47.70
4410;BME280;2218;51.408;7.208;2023-11-21T06:07:35;99453.81;;;18.94;47.53
4410;BME280;2218;51.408;7.208;2023-11-21T06:10:02;99455.53;;;18.95;47.51
4410;BME280;2218;51.408;7.208;2023-11-21T06:12:32;99463.41;;;18.95;47.76
4410;BME280;2218;51.408;7.208;2023-11-21T06:15:02;99462.56;;;18.94;47.46
4410;BME280;2218;51.408;7.208;2023-11-21T06:17:31;99464.97;;;18.97;47.35
4410;BME280;2218;51.408;7.208;2023-11-21T06:19:59;99467.59;;;18.97;47.72
4410;BME280;2218;51.408;7.208;2023-11-21T06:22:26;99470.13;;;18.99;47.56
4410;BME280;2218;51.408;7.208;2023-11-21T06:24:53;99478.03;;;18.99;47.42
4410;BME280;2218;51.408;7.208;2023-11-21T06:27:20;99470.97;;;18.99;47.53
4410;BME280;2218;51.408;7.208;2023-11-21T06:29:47;99478.78;;;19.01;47.65
4410;BME280;2218;51.408;7.208;2023-11-21T06:32:14;99487.50;;;19.01;47.56
4410;BME280;2218;51.408;7.208;2023-11-21T06:34:42;99487.41;;;19.03;47.50
4410;BME280;2218;51.408;7.208;2023-11-21T06:37:11;99486.56;;;19.02;47.25
4410;BME280;2218;51.408;7.208;2023-11-21T06:39:38;99490.97;;;19.02;47.29
4410;BME280;2218;51.408;7.208;2023-11-21T06:42:05;99489.91;;;19.04;47.36
4410;BME280;2218;51.408;7.208;2023-11-21T06:44:32;99497.72;;;19.06;47.42
4410;BME280;2218;51.408;7.208;2023-11-21T06:47:01;99493.28;;;19.06;47.40
4410;BME280;2218;51.408;7.208;2023-11-21T06:49:29;99495.34;;;19.14;47.65
4410;BME280;2218;51.408;7.208;2023-11-21T06:51:57;99501.88;;;19.21;47.44
4410;BME280;2218;51.408;7.208;2023-11-21T06:54:27;99496.38;;;19.24;47.50
4410;BME280;2218;51.408;7.208;2023-11-21T06:56:54;99500.38;;;19.30;47.23
4410;BME280;2218;51.408;7.208;2023-11-21T06:59:22;99515.22;;;19.31;47.59
4410;BME280;2218;51.408;7.208;2023-11-21T07:01:49;99510.59;;;19.34;47.48
4410;BME280;2218;51.408;7.208;2023-11-21T07:04:16;99519.94;;;19.38;47.43
4410;BME280;2218;51.408;7.208;2023-11-21T07:06:44;99521.41;;;19.43;47.44
4410;BME280;2218;51.408;7.208;2023-11-21T07:09:10;99523.31;;;19.41;47.53
4410;BME280;2218;51.408;7.208;2023-11-21T07:11:39;99530.38;;;19.40;47.75
4410;BME280;2218;51.408;7.208;2023-11-21T07:14:07;99531.94;;;19.43;47.30
4410;BME280;2218;51.408;7.208;2023-11-21T07:16:34;99543.22;;;19.45;47.28
4410;BME280;2218;51.408;7.208;2023-11-21T07:19:03;99547.53;;;19.46;47.41
4410;BME280;2218;51.408;7.208;2023-11-21T07:21:32;99551.66;;;19.50;47.58
4410;BME280;2218;51.408;7.208;2023-11-21T07:23:59;99556.78;;;19.51;47.43
4410;BME280;2218;51.408;7.208;2023-11-21T07:26:27;99553.81;;;19.56;47.30
4410;BME280;2218;51.408;7.208;2023-11-21T07:28:55;99558.84;;;19.59;47.00
4410;BME280;2218;51.408;7.208;2023-11-21T07:31:23;99558.84;;;19.59;46.94
4410;BME280;2218;51.408;7.208;2023-11-21T07:33:50;99562.38;;;19.59;46.51
4410;BME280;2218;51.408;7.208;2023-11-21T07:36:19;99557.00;;;19.61;46.73
4410;BME280;2218;51.408;7.208;2023-11-21T07:38:46;99556.75;;;19.64;46.35
4410;BME280;2218;51.408;7.208;2023-11-21T07:41:13;99557.50;;;19.66;46.64
4410;BME280;2218;51.408;7.208;2023-11-21T07:43:42;99553.91;;;19.67;46.22
4410;BME280;2218;51.408;7.208;2023-11-21T07:46:11;99548.84;;;19.64;46.52
4410;BME280;2218;51.408;7.208;2023-11-21T07:48:40;99554.13;;;19.64;46.50
4410;BME280;2218;51.408;7.208;2023-11-21T07:51:08;99553.91;;;19.67;46.31
4410;BME280;2218;51.408;7.208;2023-11-21T07:53:35;99546.13;;;19.66;46.45
4410;BME280;2218;51.408;7.208;2023-11-21T07:56:03;99554.13;;;19.64;46.06
4410;BME280;2218;51.408;7.208;2023-11-21T07:58:31;99552.56;;;19.61;46.20
4410;BME280;2218;51.408;7.208;2023-11-21T08:00:59;99570.19;;;19.61;46.63
4410;BME280;2218;51.408;7.208;2023-11-21T08:03:28;99569.41;;;19.59;46.30
4410;BME280;2218;51.408;7.208;2023-11-21T08:05:56;99575.56;;;19.59;46.31
4410;BME280;2218;51.408;7.208;2023-11-21T08:08:23;99576.41;;;19.60;46.22
4410;BME280;2218;51.408;7.208;2023-11-21T08:10:50;99580.84;;;19.59;45.97
4410;BME280;2218;51.408;7.208;2023-11-21T08:13:22;99586.00;;;19.61;46.03
4410;BME280;2218;51.408;7.208;2023-11-21T08:15:50;99589.47;;;19.61;46.06
4410;BME280;2218;51.408;7.208;2023-11-21T08:18:17;99603.50;;;19.62;46.14
4410;BME280;2218;51.408;7.208;2023-11-21T08:20:45;99604.22;;;19.64;45.96
4410;BME280;2218;51.408;7.208;2023-11-21T08:23:14;99607.59;;;19.66;45.83
4410;BME280;2218;51.408;7.208;2023-11-21T08:25:43;99627.59;;;19.69;45.97
4410;BME280;2218;51.408;7.208;2023-11-21T08:28:10;99631.81;;;19.71;45.89
4410;BME280;2218;51.408;7.208;2023-11-21T08:30:37;99630.03;;;19.72;45.73
4410;BME280;2218;51.408;7.208;2023-11-21T08:33:05;99641.41;;;19.72;45.73
4410;BME280;2218;51.408;7.208;2023-11-21T08:35:32;99646.69;;;19.72;45.51
4410;BME280;2218;51.408;7.208;2023-11-21T08:38:00;99644.88;;;19.73;45.70
4410;BME280;2218;51.408;7.208;2023-11-21T08:40:28;99651.00;;;19.73;45.65
4410;BME280;2218;51.408;7.208;2023-11-21T08:42:55;99652.72;;;19.74;45.60
4410;BME280;2218;51.408;7.208;2023-11-21T08:45:24;99655.22;;;19.76;45.54
4410;BME280;2218;51.408;7.208;2023-11-21T08:47:52;99656.06;;;19.76;45.50
4410;BME280;2218;51.408;7.208;2023-11-21T08:50:19;99656.78;;;19.78;45.92
4410;BME280;2218;51.408;7.208;2023-11-21T08:52:47;99653.31;;;19.78;45.67
4410;BME280;2218;51.408;7.208;2023-11-21T08:55:15;99661.13;;;19.79;45.63
4410;BME280;2218;51.408;7.208;2023-11-21T08:57:44;99657.53;;;19.80;45.81
4410;BME280;2218;51.408;7.208;2023-11-21T09:00:11;99669.75;;;19.81;45.75
4410;BME280;2218;51.408;7.208;2023-11-21T09:02:40;99666.28;;;19.81;45.73
4410;BME280;2218;51.408;7.208;2023-11-21T09:05:08;99667.84;;;19.83;45.70
4410;BME280;2218;51.408;7.208;2023-11-21T09:07:35;99671.31;;;19.84;45.68
4410;BME280;2218;51.408;7.208;2023-11-21T09:10:03;99672.91;;;19.86;45.77
4410;BME280;2218;51.408;7.208;2023-11-21T09:12:34;99667.41;;;19.90;46.08
4410;BME280;2218;51.408;7.208;2023-11-21T09:15:03;99675.22;;;19.91;46.11
4410;BME280;2218;51.408;7.208;2023-11-21T09:17:31;99677.97;;;19.90;46.12
4410;BME280;2218;51.408;7.208;2023-11-21T09:19:58;99679.66;;;19.91;46.14
4410;BME280;2218;51.408;7.208;2023-11-21T09:22:25;99686.47;;;19.93;46.19
4410;BME280;2218;51.408;7.208;2023-11-21T09:24:52;99690.72;;;19.96;46.29
4410;BME280;2218;51.408;7.208;2023-11-21T09:27:19;99689.75;;;19.97;46.15
4410;BME280;2218;51.408;7.208;2023-11-21T09:29:48;99695.88;;;19.97;46.43
4410;BME280;2218;51.408;7.208;2023-11-21T09:32:15;99695.75;;;19.99;46.26
4410;BME280;2218;51.408;7.208;2023-11-21T09:34:44;99704.53;;;19.99;46.69
4410;BME280;2218;51.408;7.208;2023-11-21T09:37:11;99701.78;;;20.01;46.73
4410;BME280;2218;51.408;7.208;2023-11-21T09:39:38;99712.94;;;20.04;46.95
4410;BME280;2218;51.408;7.208;2023-11-21T09:42:12;99711.16;;;20.05;47.04
4410;BME280;2218;51.408;7.208;2023-11-21T09:44:51;99713.78;;;20.05;47.27
4410;BME280;2218;51.408;7.208;2023-11-21T09:47:22;99720.75;;;20.06;47.20
4410;BME280;2218;51.408;7.208;2023-11-21T09:49:49;99718.63;;;20.11;47.09
4410;BME280;2218;51.408;7.208;2023-11-21T09:52:25;99718.63;;;20.11;47.29
4410;BME280;2218;51.408;7.208;2023-11-21T09:54:54;99722.09;;;20.11;47.34
4410;BME280;2218;51.408;7.208;2023-11-21T09:57:23;99722.94;;;20.12;47.41
4410;BME280;2218;51.408;7.208;2023-11-21T09:59:54;99721.97;;;20.13;47.51
4410;BME280;2218;51.408;7.208;2023-11-21T10:02:26;99721.97;;;20.13;47.63
4410;BME280;2218;51.408;7.208;2023-11-21T10:04:56;99722.81;;;20.13;47.11
4410;BME280;2218;51.408;7.208;2023-11-21T10:07:24;99725.34;;;20.15;47.62
4410;BME280;2218;51.408;7.208;2023-11-21T10:09:52;99729.78;;;20.14;47.58
4410;BME280;2218;51.408;7.208;2023-11-21T10:12:20;99730.63;;;20.15;47.26
4410;BME280;2218;51.408;7.208;2023-11-21T10:14:49;99729.69;;;20.16;47.22
4410;BME280;2218;51.408;7.208;2023-11-21T10:17:20;99729.56;;;20.18;47.36
4410;BME280;2218;51.408;7.208;2023-11-21T10:19:50;99729.47;;;20.19;47.25
4410;BME280;2218;51.408;7.208;2023-11-21T10:22:20;99736.50;;;20.19;47.32
4410;BME280;2218;51.408;7.208;2023-11-21T10:24:47;99737.38;;;20.19;47.08
4410;BME280;2218;51.408;7.208;2023-11-21T10:27:14;99726.81;;;20.19;47.23
4410;BME280;2218;51.408;7.208;2023-11-21T10:29:41;99731.03;;;20.22;47.20
4410;BME280;2218;51.408;7.208;2023-11-21T10:32:08;99732.59;;;20.24;46.98
4410;BME280;2218;51.408;7.208;2023-11-21T10:34:36;99729.97;;;20.24;47.03
4410;BME280;2218;51.408;7.208;2023-11-21T10:37:11;99724.69;;;20.24;46.93
4410;BME280;2218;51.408;7.208;2023-11-21T10:39:39;99725.53;;;20.25;47.14
4410;BME280;2218;51.408;7.208;2023-11-21T10:42:08;99733.31;;;20.26;46.97
4410;BME280;2218;51.408;7.208;2023-11-21T10:44:36;99740.28;;;20.27;46.84
4410;BME280;2218;51.408;7.208;2023-11-21T10:47:03;99743.66;;;20.29;46.59
4410;BME280;2218;51.408;7.208;2023-11-21T10:49:31;99743.66;;;20.29;46.89
4410;BME280;2218;51.408;7.208;2023-11-21T10:51:59;99751.59;;;20.29;47.11
4410;BME280;2218;51.408;7.208;2023-11-21T10:54:26;99759.50;;;20.29;46.89
4410;BME280;2218;51.408;7.208;2023-11-21T10:56:57;99758.53;;;20.30;46.89
4410;BME280;2218;51.408;7.208;2023-11-21T10:59:28;99758.44;;;20.32;47.00
4410;BME280;2218;51.408;7.208;2023-11-21T11:01:58;99764.53;;;20.32;46.79
4410;BME280;2218;51.408;7.208;2023-11-21T11:04:28;99762.66;;;20.34;46.84
4410;BME280;2218;51.408;7.208;2023-11-21T11:06:57;99760.94;;;20.33;46.89
4410;BME280;2218;51.408;7.208;2023-11-21T11:09:27;99766.22;;;20.33;47.09
4410;BME280;2218;51.408;7.208;2023-11-21T11:11:54;99772.38;;;20.34;46.89
4410;BME280;2218;51.408;7.208;2023-11-21T11:14:23;99775.72;;;20.36;47.00
4410;BME280;2218;51.408;7.208;2023-11-21T11:16:54;99771.41;;;20.35;46.76
4410;BME280;2218;51.408;7.208;2023-11-21T11:19:22;99773.94;;;20.36;46.87
4410;BME280;2218;51.408;7.208;2023-11-21T11:22:00;99773.22;;;20.34;46.95
4410;BME280;2218;51.408;7.208;2023-11-21T11:24:56;99773.41;;;20.31;46.56
4410;BME280;2218;51.408;7.208;2023-11-21T11:27:43;99783.75;;;20.34;46.80
4410;BME280;2218;51.408;7.208;2023-11-21T11:30:27;99773.41;;;20.31;46.58
4410;BME280;2218;51.408;7.208;2023-11-21T11:33:10;99771.75;;;20.30;46.85
4410;BME280;2218;51.408;7.208;2023-11-21T11:35:51;99771.63;;;20.32;46.96
4410;BME280;2218;51.408;7.208;2023-11-21T11:38:22;99768.97;;;20.32;46.89
4410;BME280;2218;51.408;7.208;2023-11-21T11:40:53;99771.63;;;20.32;47.24
4410;BME280;2218;51.408;7.208;2023-11-21T11:43:25;99768.97;;;20.32;47.02
4410;BME280;2218;51.408;7.208;2023-11-21T11:45:56;99773.41;;;20.31;46.81
4410;BME280;2218;51.408;7.208;2023-11-21T11:48:25;99772.47;;;20.32;47.22
4410;BME280;2218;51.408;7.208;2023-11-21T11:51:07;99778.56;;;20.33;47.10
4410;BME280;2218;51.408;7.208;2023-11-21T11:53:39;99772.47;;;20.32;47.36
4410;BME280;2218;51.408;7.208;2023-11-21T11:56:25;99777.75;;;20.32;47.14
4410;BME280;2218;51.408;7.208;2023-11-21T11:58:54;99782.06;;;20.33;46.85
4410;BME280;2218;51.408;7.208;2023-11-21T12:01:24;99785.00;;;20.42;47.10
4410;BME280;2218;51.408;7.208;2023-11-21T12:04:25;99784.78;;;20.45;47.20
4410;BME280;2218;51.408;7.208;2023-11-21T12:07:01;99786.47;;;20.46;47.01
4410;BME280;2218;51.408;7.208;2023-11-21T12:09:31;99786.47;;;20.46;47.14
4410;BME280;2218;51.408;7.208;2023-11-21T12:12:00;99797.03;;;20.46;47.24
4410;BME280;2218;51.408;7.208;2023-11-21T12:14:27;99795.13;;;20.48;47.54
4410;BME280;2218;51.408;7.208;2023-11-21T12:16:54;99812.69;;;20.49;47.21
4410;BME280;2218;51.408;7.208;2023-11-21T12:19:22;99809.06;;;20.50;47.14
4410;BME280;2218;51.408;7.208;2023-11-21T12:21:49;99807.41;;;20.49;47.58
4410;BME280;2218;51.408;7.208;2023-11-21T12:24:17;99824.91;;;20.50;47.49
4410;BME280;2218;51.408;7.208;2023-11-21T12:26:44;99822.28;;;20.50;47.56
4410;BME280;2218;51.408;7.208;2023-11-21T12:29:13;99821.31;;;20.51;47.38
4410;BME280;2218;51.408;7.208;2023-11-21T12:31:40;99823.84;;;20.52;47.44
4410;BME280;2218;51.408;7.208;2023-11-21T12:34:07;99822.16;;;20.51;47.32
4410;BME280;2218;51.408;7.208;2023-11-21T12:36:37;99829.97;;;20.53;47.71
4410;BME280;2218;51.408;7.208;2023-11-21T12:39:04;99830.72;;;20.55;47.58
4410;BME280;2218;51.408;7.208;2023-11-21T12:41:32;99825.50;;;20.53;47.34
4410;BME280;2218;51.408;7.208;2023-11-21T12:43:59;99828.06;;;20.55;47.48
4410;BME280;2218;51.408;7.208;2023-11-21T12:46:27;99828.06;;;20.55;47.40
4410;BME280;2218;51.408;7.208;2023-11-21T12:48:57;99835.03;;;20.56;47.44
4410;BME280;2218;51.408;7.208;2023-11-21T12:51:24;99834.91;;;20.57;47.64
4410;BME280;2218;51.408;7.208;2023-11-21T12:53:52;99839.22;;;20.58;47.58
4410;BME280;2218;51.408;7.208;2023-11-21T12:56:21;99838.38;;;20.58;47.62
4410;BME280;2218;51.408;7.208;2023-11-21T12:58:50;99844.50;;;20.58;47.54
4410;BME280;2218;51.408;7.208;2023-11-21T13:01:27;99837.47;;;20.59;47.93
4410;BME280;2218;51.408;7.208;2023-11-21T13:03:57;99848.84;;;20.59;47.64
4410;BME280;2218;51.408;7.208;2023-11-21T13:06:25;99854.03;;;20.61;47.25
4410;BME280;2218;51.408;7.208;2023-11-21T13:08:52;99860.13;;;20.61;47.53
4410;BME280;2218;51.408;7.208;2023-11-21T13:11:19;99854.03;;;20.61;47.35
4410;BME280;2218;51.408;7.208;2023-11-21T13:13:46;99861.22;;;20.59;46.92
4410;BME280;2218;51.408;7.208;2023-11-21T13:16:15;99869.34;;;20.56;46.87
4410;BME280;2218;51.408;7.208;2023-11-21T13:18:43;99875.59;;;20.55;46.58
4410;BME280;2218;51.408;7.208;2023-11-21T13:21:10;99880.88;;;20.55;46.40
4410;BME280;2218;51.408;7.208;2023-11-21T13:23:40;99879.19;;;20.54;46.71
4410;BME280;2218;51.408;7.208;2023-11-21T13:26:08;99884.34;;;20.55;46.48
4410;BME280;2218;51.408;7.208;2023-11-21T13:28:36;99884.22;;;20.57;46.63
4410;BME280;2218;51.408;7.208;2023-11-21T13:31:05;99893.94;;;20.56;46.29